sensor_id;sensor_type;location;lat;lon;timestamp;P1;durP1;ratioP1;P2;durP2;ratioP2
26582;SDS011;14230;45.382;10.998;2023-04-03T00:01:07;10.95;;;5.60;;
26582;SDS011;14230;45.382;10.998;2023-04-03T00:03:36;10.18;;;5.88;;
26582;SDS011;14230;45.382;10.998;2023-04-03T00:06:04;8.65;;;5.90;;
26582;SDS011;14230;45.382;10.998;2023-04-03T00:08:37;10.85;;;5.45;;
26582;SDS011;14230;45.382;10.998;2023-04-03T00:11:07;7.75;;;5.03;;
26582;SDS011;14230;45.382;10.998;2023-04-03T00:13:35;7.85;;;5.88;;
26582;SDS011;14230;45.382;10.998;2023-04-03T00:16:02;11.98;;;5.90;;
26582;SDS011;14230;45.382;10.998;2023-04-03T00:18:30;8.93;;;6.15;;
26582;SDS011;14230;45.382;10.998;2023-04-03T00:20:58;7.28;;;5.50;;
26582;SDS011;14230;45.382;10.998;2023-04-03T00:23:29;8.18;;;5.18;;
26582;SDS011;14230;45.382;10.998;2023-04-03T00:25:58;7.88;;;5.60;;
26582;SDS011;14230;45.382;10.998;2023-04-03T00:28:28;9.65;;;6.28;;
26582;SDS011;14230;45.382;10.998;2023-04-03T00:30:57;8.77;;;5.18;;
26582;SDS011;14230;45.382;10.998;2023-04-03T00:33:25;8.07;;;6.13;;
26582;SDS011;14230;45.382;10.998;2023-04-03T00:35:52;8.10;;;5.13;;
26582;SDS011;14230;45.382;10.998;2023-04-03T00:38:20;8.85;;;6.22;;
26582;SDS011;14230;45.382;10.998;2023-04-03T00:40:48;5.55;;;4.93;;
26582;SDS011;14230;45.382;10.998;2023-04-03T00:43:18;5.63;;;4.22;;
26582;SDS011;14230;45.382;10.998;2023-04-03T00:45:52;4.10;;;3.60;;
26582;SDS011;14230;45.382;10.998;2023-04-03T00:50:58;4.28;;;3.40;;
26582;SDS011;14230;45.382;10.998;2023-04-03T00:53:30;3.13;;;2.83;;
26582;SDS011;14230;45.382;10.998;2023-04-03T00:56:08;3.00;;;2.70;;
26582;SDS011;14230;45.382;10.998;2023-04-03T00:58:40;3.50;;;2.40;;
26582;SDS011;14230;45.382;10.998;2023-04-03T01:01:16;6.50;;;2.45;;
26582;SDS011;14230;45.382;10.998;2023-04-03T01:03:49;2.53;;;2.33;;
26582;SDS011;14230;45.382;10.998;2023-04-03T01:06:20;2.42;;;2.22;;
26582;SDS011;14230;45.382;10.998;2023-04-03T01:08:52;2.40;;;2.20;;
26582;SDS011;14230;45.382;10.998;2023-04-03T01:11:21;4.63;;;3.15;;
26582;SDS011;14230;45.382;10.998;2023-04-03T01:13:49;2.38;;;2.17;;
26582;SDS011;14230;45.382;10.998;2023-04-03T01:16:17;3.03;;;2.10;;
26582;SDS011;14230;45.382;10.998;2023-04-03T01:18:46;3.05;;;2.40;;
26582;SDS011;14230;45.382;10.998;2023-04-03T01:24:26;2.88;;;2.05;;
26582;SDS011;14230;45.382;10.998;2023-04-03T01:26:55;2.53;;;2.33;;
26582;SDS011;14230;45.382;10.998;2023-04-03T01:29:23;4.50;;;1.95;;
26582;SDS011;14230;45.382;10.998;2023-04-03T01:31:55;6.28;;;2.15;;
26582;SDS011;14230;45.382;10.998;2023-04-03T01:34:24;3.55;;;1.60;;
26582;SDS011;14230;45.382;10.998;2023-04-03T01:36:52;1.60;;;1.50;;
26582;SDS011;14230;45.382;10.998;2023-04-03T01:39:21;3.40;;;1.60;;
26582;SDS011;14230;45.382;10.998;2023-04-03T01:41:49;1.52;;;1.42;;
26582;SDS011;14230;45.382;10.998;2023-04-03T01:44:23;2.22;;;1.55;;
26582;SDS011;14230;45.382;10.998;2023-04-03T01:46:50;2.15;;;1.40;;
26582;SDS011;14230;45.382;10.998;2023-04-03T01:49:20;1.55;;;1.33;;
26582;SDS011;14230;45.382;10.998;2023-04-03T01:51:47;1.77;;;1.60;;
26582;SDS011;14230;45.382;10.998;2023-04-03T01:54:15;1.80;;;1.70;;
26582;SDS011;14230;45.382;10.998;2023-04-03T01:56:43;1.60;;;1.50;;
26582;SDS011;14230;45.382;10.998;2023-04-03T01:59:10;3.08;;;1.85;;
26582;SDS011;14230;45.382;10.998;2023-04-03T02:01:38;4.47;;;2.00;;
26582;SDS011;14230;45.382;10.998;2023-04-03T02:04:06;1.83;;;1.70;;
26582;SDS011;14230;45.382;10.998;2023-04-03T02:06:33;2.78;;;1.90;;
26582;SDS011;14230;45.382;10.998;2023-04-03T02:09:02;2.30;;;2.10;;
26582;SDS011;14230;45.382;10.998;2023-04-03T02:11:30;1.95;;;1.63;;
26582;SDS011;14230;45.382;10.998;2023-04-03T02:13:57;2.13;;;1.90;;
26582;SDS011;14230;45.382;10.998;2023-04-03T02:16:25;2.20;;;2.00;;
26582;SDS011;14230;45.382;10.998;2023-04-03T02:18:52;2.22;;;2.03;;
26582;SDS011;14230;45.382;10.998;2023-04-03T02:21:20;16.23;;;3.58;;
26582;SDS011;14230;45.382;10.998;2023-04-03T02:23:48;3.58;;;2.10;;
26582;SDS011;14230;45.382;10.998;2023-04-03T02:26:16;1.83;;;1.73;;
26582;SDS011;14230;45.382;10.998;2023-04-03T02:28:45;6.10;;;2.30;;
26582;SDS011;14230;45.382;10.998;2023-04-03T02:31:12;3.50;;;1.80;;
26582;SDS011;14230;45.382;10.998;2023-04-03T02:33:42;3.85;;;1.95;;
26582;SDS011;14230;45.382;10.998;2023-04-03T02:36:13;3.40;;;1.90;;
26582;SDS011;14230;45.382;10.998;2023-04-03T02:38:49;2.55;;;1.42;;
26582;SDS011;14230;45.382;10.998;2023-04-03T02:41:17;1.90;;;1.63;;
26582;SDS011;14230;45.382;10.998;2023-04-03T02:43:46;1.40;;;1.30;;
26582;SDS011;14230;45.382;10.998;2023-04-03T02:46:15;1.50;;;1.40;;
26582;SDS011;14230;45.382;10.998;2023-04-03T02:48:42;1.67;;;1.50;;
26582;SDS011;14230;45.382;10.998;2023-04-03T02:51:10;1.55;;;1.45;;
26582;SDS011;14230;45.382;10.998;2023-04-03T02:53:37;4.82;;;1.90;;
26582;SDS011;14230;45.382;10.998;2023-04-03T02:56:11;3.97;;;1.70;;
26582;SDS011;14230;45.382;10.998;2023-04-03T02:58:38;3.35;;;2.10;;
26582;SDS011;14230;45.382;10.998;2023-04-03T03:01:07;2.03;;;1.85;;
26582;SDS011;14230;45.382;10.998;2023-04-03T03:03:35;2.00;;;1.90;;
26582;SDS011;14230;45.382;10.998;2023-04-03T03:06:03;4.07;;;1.95;;
26582;SDS011;14230;45.382;10.998;2023-04-03T03:08:36;2.35;;;1.88;;
26582;SDS011;14230;45.382;10.998;2023-04-03T03:11:04;2.90;;;2.00;;
26582;SDS011;14230;45.382;10.998;2023-04-03T03:13:32;2.15;;;1.95;;
26582;SDS011;14230;45.382;10.998;2023-04-03T03:16:00;3.47;;;2.00;;
26582;SDS011;14230;45.382;10.998;2023-04-03T03:18:28;2.45;;;2.17;;
26582;SDS011;14230;45.382;10.998;2023-04-03T03:20:56;3.30;;;2.33;;
26582;SDS011;14230;45.382;10.998;2023-04-03T03:23:26;4.32;;;2.00;;
26582;SDS011;14230;45.382;10.998;2023-04-03T03:25:55;2.15;;;1.88;;
26582;SDS011;14230;45.382;10.998;2023-04-03T03:28:24;3.80;;;2.00;;
26582;SDS011;14230;45.382;10.998;2023-04-03T03:30:51;2.25;;;2.03;;
26582;SDS011;14230;45.382;10.998;2023-04-03T03:33:20;3.63;;;2.45;;
26582;SDS011;14230;45.382;10.998;2023-04-03T03:35:47;4.03;;;2.50;;
26582;SDS011;14230;45.382;10.998;2023-04-03T03:38:15;4.40;;;2.22;;
26582;SDS011;14230;45.382;10.998;2023-04-03T03:40:42;3.08;;;1.95;;
26582;SDS011;14230;45.382;10.998;2023-04-03T03:43:10;1.98;;;1.70;;
26582;SDS011;14230;45.382;10.998;2023-04-03T03:45:37;2.13;;;1.92;;
26582;SDS011;14230;45.382;10.998;2023-04-03T03:48:05;8.57;;;2.30;;
26582;SDS011;14230;45.382;10.998;2023-04-03T03:50:33;7.07;;;2.28;;
26582;SDS011;14230;45.382;10.998;2023-04-03T03:53:00;2.65;;;2.42;;
26582;SDS011;14230;45.382;10.998;2023-04-03T03:55:28;4.00;;;2.38;;
26582;SDS011;14230;45.382;10.998;2023-04-03T03:57:57;6.00;;;3.03;;
26582;SDS011;14230;45.382;10.998;2023-04-03T04:00:24;3.30;;;3.00;;
26582;SDS011;14230;45.382;10.998;2023-04-03T04:02:54;4.90;;;3.25;;
26582;SDS011;14230;45.382;10.998;2023-04-03T04:05:25;7.05;;;3.10;;
26582;SDS011;14230;45.382;10.998;2023-04-03T04:07:53;4.93;;;2.92;;
26582;SDS011;14230;45.382;10.998;2023-04-03T04:10:23;7.10;;;2.80;;
26582;SDS011;14230;45.382;10.998;2023-04-03T04:12:51;5.00;;;3.20;;
26582;SDS011;14230;45.382;10.998;2023-04-03T04:15:22;6.50;;;3.38;;
26582;SDS011;14230;45.382;10.998;2023-04-03T04:17:50;4.35;;;3.05;;
26582;SDS011;14230;45.382;10.998;2023-04-03T04:20:17;5.70;;;3.30;;
26582;SDS011;14230;45.382;10.998;2023-04-03T04:22:46;5.03;;;3.20;;
26582;SDS011;14230;45.382;10.998;2023-04-03T04:25:13;4.88;;;3.72;;
26582;SDS011;14230;45.382;10.998;2023-04-03T04:27:41;5.28;;;3.78;;
26582;SDS011;14230;45.382;10.998;2023-04-03T04:30:09;9.10;;;3.65;;
26582;SDS011;14230;45.382;10.998;2023-04-03T04:32:37;4.68;;;3.75;;
26582;SDS011;14230;45.382;10.998;2023-04-03T04:35:05;7.38;;;3.92;;
26582;SDS011;14230;45.382;10.998;2023-04-03T04:37:36;5.57;;;3.65;;
26582;SDS011;14230;45.382;10.998;2023-04-03T04:40:04;6.60;;;4.60;;
26582;SDS011;14230;45.382;10.998;2023-04-03T04:42:31;5.13;;;3.75;;
26582;SDS011;14230;45.382;10.998;2023-04-03T04:44:59;4.90;;;3.53;;
26582;SDS011;14230;45.382;10.998;2023-04-03T04:47:28;9.65;;;3.60;;
26582;SDS011;14230;45.382;10.998;2023-04-03T04:49:56;5.93;;;3.22;;
26582;SDS011;14230;45.382;10.998;2023-04-03T04:52:24;6.60;;;3.92;;
26582;SDS011;14230;45.382;10.998;2023-04-03T04:54:52;4.40;;;3.17;;
26582;SDS011;14230;45.382;10.998;2023-04-03T04:57:19;7.72;;;3.47;;
26582;SDS011;14230;45.382;10.998;2023-04-03T04:59:47;4.60;;;3.50;;
26582;SDS011;14230;45.382;10.998;2023-04-03T05:02:14;3.85;;;2.90;;
26582;SDS011;14230;45.382;10.998;2023-04-03T05:04:44;5.00;;;3.03;;
26582;SDS011;14230;45.382;10.998;2023-04-03T05:07:18;4.95;;;2.95;;
26582;SDS011;14230;45.382;10.998;2023-04-03T05:09:46;7.20;;;3.42;;
26582;SDS011;14230;45.382;10.998;2023-04-03T05:12:15;3.15;;;2.65;;
26582;SDS011;14230;45.382;10.998;2023-04-03T05:14:51;6.32;;;2.63;;
26582;SDS011;14230;45.382;10.998;2023-04-03T05:17:18;5.72;;;2.72;;
26582;SDS011;14230;45.382;10.998;2023-04-03T05:19:50;4.80;;;3.10;;
26582;SDS011;14230;45.382;10.998;2023-04-03T05:22:20;4.40;;;2.80;;
26582;SDS011;14230;45.382;10.998;2023-04-03T05:24:48;2.85;;;2.53;;
26582;SDS011;14230;45.382;10.998;2023-04-03T05:27:17;4.18;;;2.50;;
26582;SDS011;14230;45.382;10.998;2023-04-03T05:29:50;3.05;;;2.08;;
26582;SDS011;14230;45.382;10.998;2023-04-03T05:32:22;3.80;;;2.55;;
26582;SDS011;14230;45.382;10.998;2023-04-03T05:34:57;2.42;;;2.22;;
26582;SDS011;14230;45.382;10.998;2023-04-03T05:37:27;3.17;;;2.28;;
26582;SDS011;14230;45.382;10.998;2023-04-03T05:39:55;5.85;;;2.88;;
26582;SDS011;14230;45.382;10.998;2023-04-03T05:42:23;2.63;;;2.35;;
26582;SDS011;14230;45.382;10.998;2023-04-03T05:44:51;2.60;;;2.40;;
26582;SDS011;14230;45.382;10.998;2023-04-03T05:47:18;2.20;;;1.95;;
26582;SDS011;14230;45.382;10.998;2023-04-03T05:49:46;6.22;;;2.40;;
26582;SDS011;14230;45.382;10.998;2023-04-03T05:52:33;2.72;;;2.42;;
26582;SDS011;14230;45.382;10.998;2023-04-03T05:55:04;4.15;;;2.20;;
26582;SDS011;14230;45.382;10.998;2023-04-03T05:57:34;4.55;;;2.22;;
26582;SDS011;14230;45.382;10.998;2023-04-03T06:00:06;7.13;;;2.25;;
26582;SDS011;14230;45.382;10.998;2023-04-03T06:02:45;3.85;;;1.85;;
26582;SDS011;14230;45.382;10.998;2023-04-03T06:05:18;7.30;;;2.80;;
26582;SDS011;14230;45.382;10.998;2023-04-03T06:07:45;5.20;;;2.55;;
26582;SDS011;14230;45.382;10.998;2023-04-03T06:10:13;4.25;;;2.67;;
26582;SDS011;14230;45.382;10.998;2023-04-03T06:12:41;3.55;;;2.60;;
26582;SDS011;14230;45.382;10.998;2023-04-03T06:15:09;6.93;;;2.30;;
26582;SDS011;14230;45.382;10.998;2023-04-03T06:17:38;5.28;;;2.53;;
26582;SDS011;14230;45.382;10.998;2023-04-03T06:20:07;6.30;;;3.22;;
26582;SDS011;14230;45.382;10.998;2023-04-03T06:22:36;4.75;;;2.72;;
26582;SDS011;14230;45.382;10.998;2023-04-03T06:25:04;3.58;;;2.60;;
26582;SDS011;14230;45.382;10.998;2023-04-03T06:27:31;9.15;;;4.03;;
26582;SDS011;14230;45.382;10.998;2023-04-03T06:29:59;6.95;;;3.42;;
26582;SDS011;14230;45.382;10.998;2023-04-03T06:32:27;11.85;;;5.40;;
26582;SDS011;14230;45.382;10.998;2023-04-03T06:34:55;14.25;;;5.95;;
26582;SDS011;14230;45.382;10.998;2023-04-03T06:37:23;8.55;;;5.28;;
26582;SDS011;14230;45.382;10.998;2023-04-03T06:39:58;7.47;;;4.20;;
26582;SDS011;14230;45.382;10.998;2023-04-03T06:42:27;6.78;;;4.22;;
26582;SDS011;14230;45.382;10.998;2023-04-03T06:45:00;9.98;;;3.42;;
26582;SDS011;14230;45.382;10.998;2023-04-03T06:47:28;5.28;;;2.90;;
26582;SDS011;14230;45.382;10.998;2023-04-03T06:49:55;5.93;;;2.30;;
26582;SDS011;14230;45.382;10.998;2023-04-03T06:52:24;9.00;;;2.83;;
26582;SDS011;14230;45.382;10.998;2023-04-03T06:54:52;7.15;;;2.10;;
26582;SDS011;14230;45.382;10.998;2023-04-03T06:57:23;6.18;;;2.05;;
26582;SDS011;14230;45.382;10.998;2023-04-03T06:59:51;5.10;;;2.47;;
26582;SDS011;14230;45.382;10.998;2023-04-03T07:02:19;3.35;;;2.28;;
26582;SDS011;14230;45.382;10.998;2023-04-03T07:04:47;2.90;;;2.00;;
26582;SDS011;14230;45.382;10.998;2023-04-03T07:07:15;6.43;;;2.30;;
26582;SDS011;14230;45.382;10.998;2023-04-03T07:09:44;4.95;;;2.17;;
26582;SDS011;14230;45.382;10.998;2023-04-03T07:12:13;4.10;;;2.20;;
26582;SDS011;14230;45.382;10.998;2023-04-03T07:14:41;4.20;;;2.30;;
26582;SDS011;14230;45.382;10.998;2023-04-03T07:17:09;4.10;;;2.53;;
26582;SDS011;14230;45.382;10.998;2023-04-03T07:19:37;4.13;;;2.28;;
26582;SDS011;14230;45.382;10.998;2023-04-03T07:22:04;5.63;;;2.25;;
26582;SDS011;14230;45.382;10.998;2023-04-03T07:24:31;3.25;;;2.10;;
26582;SDS011;14230;45.382;10.998;2023-04-03T07:26:59;4.03;;;2.42;;
26582;SDS011;14230;45.382;10.998;2023-04-03T07:29:28;3.90;;;2.30;;
26582;SDS011;14230;45.382;10.998;2023-04-03T07:31:55;5.07;;;3.00;;
26582;SDS011;14230;45.382;10.998;2023-04-03T07:34:23;6.40;;;5.03;;
26582;SDS011;14230;45.382;10.998;2023-04-03T07:36:51;4.10;;;3.55;;
26582;SDS011;14230;45.382;10.998;2023-04-03T07:39:19;9.93;;;2.72;;
26582;SDS011;14230;45.382;10.998;2023-04-03T07:41:46;4.25;;;2.67;;
26582;SDS011;14230;45.382;10.998;2023-04-03T07:44:14;9.55;;;2.70;;
26582;SDS011;14230;45.382;10.998;2023-04-03T07:46:41;4.40;;;3.05;;
26582;SDS011;14230;45.382;10.998;2023-04-03T07:49:09;4.85;;;2.10;;
26582;SDS011;14230;45.382;10.998;2023-04-03T07:51:36;10.15;;;2.22;;
26582;SDS011;14230;45.382;10.998;2023-04-03T07:54:04;7.13;;;3.70;;
26582;SDS011;14230;45.382;10.998;2023-04-03T07:56:31;8.20;;;2.65;;
26582;SDS011;14230;45.382;10.998;2023-04-03T07:58:59;7.18;;;3.22;;
26582;SDS011;14230;45.382;10.998;2023-04-03T08:01:26;6.47;;;2.72;;
26582;SDS011;14230;45.382;10.998;2023-04-03T08:03:54;2.08;;;1.77;;
26582;SDS011;14230;45.382;10.998;2023-04-03T08:06:22;3.78;;;2.47;;
26582;SDS011;14230;45.382;10.998;2023-04-03T08:09:09;4.40;;;2.58;;
26582;SDS011;14230;45.382;10.998;2023-04-03T08:11:38;5.68;;;2.47;;
26582;SDS011;14230;45.382;10.998;2023-04-03T08:14:06;6.53;;;2.95;;
26582;SDS011;14230;45.382;10.998;2023-04-03T08:16:34;3.08;;;2.78;;
26582;SDS011;14230;45.382;10.998;2023-04-03T08:19:01;4.75;;;3.35;;
26582;SDS011;14230;45.382;10.998;2023-04-03T08:21:33;3.15;;;2.15;;
26582;SDS011;14230;45.382;10.998;2023-04-03T08:24:00;6.40;;;2.13;;
26582;SDS011;14230;45.382;10.998;2023-04-03T08:26:28;5.72;;;3.50;;
26582;SDS011;14230;45.382;10.998;2023-04-03T08:28:55;6.68;;;4.57;;
26582;SDS011;14230;45.382;10.998;2023-04-03T08:31:23;8.50;;;4.18;;
26582;SDS011;14230;45.382;10.998;2023-04-03T08:33:50;8.88;;;4.43;;
26582;SDS011;14230;45.382;10.998;2023-04-03T08:38:51;5.57;;;5.05;;
26582;SDS011;14230;45.382;10.998;2023-04-03T08:41:42;7.30;;;4.28;;
26582;SDS011;14230;45.382;10.998;2023-04-03T08:58:04;3.75;;;2.42;;
26582;SDS011;14230;45.382;10.998;2023-04-03T09:00:35;6.10;;;4.40;;
26582;SDS011;14230;45.382;10.998;2023-04-03T09:03:13;7.85;;;2.95;;
26582;SDS011;14230;45.382;10.998;2023-04-03T09:05:49;4.95;;;2.85;;
26582;SDS011;14230;45.382;10.998;2023-04-03T09:08:27;4.07;;;2.13;;
26582;SDS011;14230;45.382;10.998;2023-04-03T09:13:50;5.82;;;2.83;;
26582;SDS011;14230;45.382;10.998;2023-04-03T09:16:52;4.80;;;2.88;;
26582;SDS011;14230;45.382;10.998;2023-04-03T09:22:01;3.30;;;2.70;;
26582;SDS011;14230;45.382;10.998;2023-04-03T09:24:39;5.95;;;3.20;;
26582;SDS011;14230;45.382;10.998;2023-04-03T09:27:09;9.30;;;2.83;;
26582;SDS011;14230;45.382;10.998;2023-04-03T09:29:39;7.43;;;3.28;;
26582;SDS011;14230;45.382;10.998;2023-04-03T09:32:22;6.80;;;4.13;;
26582;SDS011;14230;45.382;10.998;2023-04-03T09:34:58;7.75;;;4.30;;
26582;SDS011;14230;45.382;10.998;2023-04-03T09:40:41;11.50;;;3.30;;
26582;SDS011;14230;45.382;10.998;2023-04-03T09:43:20;4.20;;;2.75;;
26582;SDS011;14230;45.382;10.998;2023-04-03T09:45:50;9.23;;;5.10;;
26582;SDS011;14230;45.382;10.998;2023-04-03T09:58:46;6.57;;;2.63;;
26582;SDS011;14230;45.382;10.998;2023-04-03T10:03:47;7.93;;;2.78;;
26582;SDS011;14230;45.382;10.998;2023-04-03T10:06:31;6.30;;;3.38;;
26582;SDS011;14230;45.382;10.998;2023-04-03T10:09:03;6.88;;;4.72;;
26582;SDS011;14230;45.382;10.998;2023-04-03T10:11:33;4.88;;;3.17;;
26582;SDS011;14230;45.382;10.998;2023-04-03T10:14:01;6.50;;;3.38;;
26582;SDS011;14230;45.382;10.998;2023-04-03T10:16:38;9.90;;;3.50;;
26582;SDS011;14230;45.382;10.998;2023-04-03T10:22:02;13.40;;;3.67;;
26582;SDS011;14230;45.382;10.998;2023-04-03T10:24:44;7.28;;;4.15;;
26582;SDS011;14230;45.382;10.998;2023-04-03T10:30:09;7.10;;;3.28;;
26582;SDS011;14230;45.382;10.998;2023-04-03T10:33:04;6.50;;;3.22;;
26582;SDS011;14230;45.382;10.998;2023-04-03T10:38:34;5.25;;;3.20;;
26582;SDS011;14230;45.382;10.998;2023-04-03T10:47:02;6.38;;;3.00;;
26582;SDS011;14230;45.382;10.998;2023-04-03T10:52:52;9.90;;;4.03;;
26582;SDS011;14230;45.382;10.998;2023-04-03T10:58:24;8.57;;;3.80;;
26582;SDS011;14230;45.382;10.998;2023-04-03T11:01:42;8.02;;;4.88;;
26582;SDS011;14230;45.382;10.998;2023-04-03T11:03:52;4.72;;;3.08;;
26582;SDS011;14230;45.382;10.998;2023-04-03T11:06:24;11.23;;;3.08;;
26582;SDS011;14230;45.382;10.998;2023-04-03T11:08:59;10.70;;;3.30;;
26582;SDS011;14230;45.382;10.998;2023-04-03T11:11:34;10.65;;;3.63;;
26582;SDS011;14230;45.382;10.998;2023-04-03T11:16:47;11.82;;;3.95;;
26582;SDS011;14230;45.382;10.998;2023-04-03T11:19:21;8.82;;;3.85;;
26582;SDS011;14230;45.382;10.998;2023-04-03T11:21:56;6.97;;;3.67;;
26582;SDS011;14230;45.382;10.998;2023-04-03T11:24:28;11.70;;;3.92;;
26582;SDS011;14230;45.382;10.998;2023-04-03T11:26:59;6.00;;;3.28;;
26582;SDS011;14230;45.382;10.998;2023-04-03T11:29:37;7.45;;;3.15;;
26582;SDS011;14230;45.382;10.998;2023-04-03T11:32:15;12.75;;;8.23;;
26582;SDS011;14230;45.382;10.998;2023-04-03T11:35:14;7.10;;;3.08;;
26582;SDS011;14230;45.382;10.998;2023-04-03T11:37:48;13.25;;;3.67;;
26582;SDS011;14230;45.382;10.998;2023-04-03T11:45:37;4.68;;;3.65;;
26582;SDS011;14230;45.382;10.998;2023-04-03T11:50:59;8.82;;;3.67;;
26582;SDS011;14230;45.382;10.998;2023-04-03T11:53:47;7.30;;;3.80;;
26582;SDS011;14230;45.382;10.998;2023-04-03T12:01:47;10.57;;;4.18;;
26582;SDS011;14230;45.382;10.998;2023-04-03T12:04:20;12.55;;;3.72;;
26582;SDS011;14230;45.382;10.998;2023-04-03T12:06:59;5.50;;;3.35;;
26582;SDS011;14230;45.382;10.998;2023-04-03T12:09:35;4.78;;;3.72;;
26582;SDS011;14230;45.382;10.998;2023-04-03T12:14:51;13.57;;;4.88;;
26582;SDS011;14230;45.382;10.998;2023-04-03T12:17:26;10.65;;;4.18;;
26582;SDS011;14230;45.382;10.998;2023-04-03T12:19:56;5.40;;;3.55;;
26582;SDS011;14230;45.382;10.998;2023-04-03T12:22:23;7.22;;;4.70;;
26582;SDS011;14230;45.382;10.998;2023-04-03T12:24:52;6.82;;;4.13;;
26582;SDS011;14230;45.382;10.998;2023-04-03T12:27:33;5.18;;;2.88;;
26582;SDS011;14230;45.382;10.998;2023-04-03T12:30:15;8.63;;;3.08;;
26582;SDS011;14230;45.382;10.998;2023-04-03T12:32:55;8.93;;;3.30;;
26582;SDS011;14230;45.382;10.998;2023-04-03T12:36:02;8.45;;;3.65;;
26582;SDS011;14230;45.382;10.998;2023-04-03T12:38:49;8.90;;;4.18;;
26582;SDS011;14230;45.382;10.998;2023-04-03T12:41:27;8.30;;;3.88;;
26582;SDS011;14230;45.382;10.998;2023-04-03T12:44:12;5.65;;;3.67;;
26582;SDS011;14230;45.382;10.998;2023-04-03T12:46:58;8.15;;;3.72;;
26582;SDS011;14230;45.382;10.998;2023-04-03T12:49:35;6.65;;;3.72;;
26582;SDS011;14230;45.382;10.998;2023-04-03T12:52:06;14.38;;;5.60;;
26582;SDS011;14230;45.382;10.998;2023-04-03T12:55:08;11.10;;;4.70;;
26582;SDS011;14230;45.382;10.998;2023-04-03T12:57:46;9.23;;;2.72;;
26582;SDS011;14230;45.382;10.998;2023-04-03T13:00:33;6.40;;;3.10;;
26582;SDS011;14230;45.382;10.998;2023-04-03T13:03:06;5.22;;;3.08;;
26582;SDS011;14230;45.382;10.998;2023-04-03T13:05:46;6.55;;;3.45;;
26582;SDS011;14230;45.382;10.998;2023-04-03T13:08:13;5.82;;;2.80;;
26582;SDS011;14230;45.382;10.998;2023-04-03T13:10:54;8.52;;;2.97;;
26582;SDS011;14230;45.382;10.998;2023-04-03T13:13:32;9.63;;;3.38;;
26582;SDS011;14230;45.382;10.998;2023-04-03T13:15:59;9.73;;;2.92;;
26582;SDS011;14230;45.382;10.998;2023-04-03T13:18:37;11.35;;;3.97;;
26582;SDS011;14230;45.382;10.998;2023-04-03T13:23:35;11.13;;;3.30;;
26582;SDS011;14230;45.382;10.998;2023-04-03T13:26:05;6.68;;;4.55;;
26582;SDS011;14230;45.382;10.998;2023-04-03T13:28:33;9.50;;;4.38;;
26582;SDS011;14230;45.382;10.998;2023-04-03T13:33:55;7.18;;;3.22;;
26582;SDS011;14230;45.382;10.998;2023-04-03T13:36:30;6.78;;;2.78;;
26582;SDS011;14230;45.382;10.998;2023-04-03T13:41:38;6.90;;;3.40;;
26582;SDS011;14230;45.382;10.998;2023-04-03T13:46:53;9.05;;;3.78;;
26582;SDS011;14230;45.382;10.998;2023-04-03T13:51:55;8.25;;;3.38;;
26582;SDS011;14230;45.382;10.998;2023-04-03T13:54:37;6.25;;;2.92;;
26582;SDS011;14230;45.382;10.998;2023-04-03T13:57:13;6.25;;;2.67;;
26582;SDS011;14230;45.382;10.998;2023-04-03T13:59:42;10.45;;;3.42;;
26582;SDS011;14230;45.382;10.998;2023-04-03T14:02:12;7.30;;;3.33;;
26582;SDS011;14230;45.382;10.998;2023-04-03T14:04:58;11.63;;;3.80;;
26582;SDS011;14230;45.382;10.998;2023-04-03T14:07:29;10.10;;;3.45;;
26582;SDS011;14230;45.382;10.998;2023-04-03T14:09:57;9.23;;;2.95;;
26582;SDS011;14230;45.382;10.998;2023-04-03T14:12:46;8.73;;;3.15;;
26582;SDS011;14230;45.382;10.998;2023-04-03T14:15:23;11.82;;;4.35;;
26582;SDS011;14230;45.382;10.998;2023-04-03T14:17:54;15.18;;;3.40;;
26582;SDS011;14230;45.382;10.998;2023-04-03T14:20:24;13.85;;;3.92;;
26582;SDS011;14230;45.382;10.998;2023-04-03T14:22:53;11.60;;;3.78;;
26582;SDS011;14230;45.382;10.998;2023-04-03T14:25:21;13.10;;;3.50;;
26582;SDS011;14230;45.382;10.998;2023-04-03T14:27:53;18.02;;;5.72;;
26582;SDS011;14230;45.382;10.998;2023-04-03T14:30:23;17.17;;;4.15;;
26582;SDS011;14230;45.382;10.998;2023-04-03T14:32:53;6.53;;;3.05;;
26582;SDS011;14230;45.382;10.998;2023-04-03T14:35:21;6.15;;;3.25;;
26582;SDS011;14230;45.382;10.998;2023-04-03T14:37:49;5.97;;;3.08;;
26582;SDS011;14230;45.382;10.998;2023-04-03T14:40:20;12.55;;;3.17;;
26582;SDS011;14230;45.382;10.998;2023-04-03T14:42:50;8.30;;;3.15;;
26582;SDS011;14230;45.382;10.998;2023-04-03T14:45:22;9.38;;;4.63;;
26582;SDS011;14230;45.382;10.998;2023-04-03T14:47:51;5.97;;;3.25;;
26582;SDS011;14230;45.382;10.998;2023-04-03T14:50:22;10.90;;;3.88;;
26582;SDS011;14230;45.382;10.998;2023-04-03T14:52:53;17.17;;;3.53;;
26582;SDS011;14230;45.382;10.998;2023-04-03T14:55:23;5.13;;;3.53;;
26582;SDS011;14230;45.382;10.998;2023-04-03T14:57:51;10.13;;;3.55;;
26582;SDS011;14230;45.382;10.998;2023-04-03T15:00:20;11.93;;;3.35;;
26582;SDS011;14230;45.382;10.998;2023-04-03T15:02:48;22.13;;;5.63;;
26582;SDS011;14230;45.382;10.998;2023-04-03T15:05:16;10.65;;;3.50;;
26582;SDS011;14230;45.382;10.998;2023-04-03T15:07:52;8.57;;;3.40;;
26582;SDS011;14230;45.382;10.998;2023-04-03T15:10:22;6.85;;;3.40;;
26582;SDS011;14230;45.382;10.998;2023-04-03T15:12:50;6.72;;;2.95;;
26582;SDS011;14230;45.382;10.998;2023-04-03T15:15:19;7.78;;;3.33;;
26582;SDS011;14230;45.382;10.998;2023-04-03T15:17:50;11.48;;;3.70;;
26582;SDS011;14230;45.382;10.998;2023-04-03T15:20:25;4.60;;;2.92;;
26582;SDS011;14230;45.382;10.998;2023-04-03T15:22:54;11.90;;;3.47;;
26582;SDS011;14230;45.382;10.998;2023-04-03T15:25:23;6.53;;;2.67;;
26582;SDS011;14230;45.382;10.998;2023-04-03T15:27:55;10.10;;;2.88;;
26582;SDS011;14230;45.382;10.998;2023-04-03T15:30:24;5.72;;;3.42;;
26582;SDS011;14230;45.382;10.998;2023-04-03T15:32:51;6.75;;;2.72;;
26582;SDS011;14230;45.382;10.998;2023-04-03T15:35:20;13.38;;;3.22;;
26582;SDS011;14230;45.382;10.998;2023-04-03T15:37:47;7.70;;;2.88;;
26582;SDS011;14230;45.382;10.998;2023-04-03T15:40:15;19.48;;;4.18;;
26582;SDS011;14230;45.382;10.998;2023-04-03T15:42:43;12.57;;;3.03;;
26582;SDS011;14230;45.382;10.998;2023-04-03T15:45:10;16.63;;;3.30;;
26582;SDS011;14230;45.382;10.998;2023-04-03T15:47:38;8.98;;;3.00;;
26582;SDS011;14230;45.382;10.998;2023-04-03T15:50:05;6.30;;;2.85;;
26582;SDS011;14230;45.382;10.998;2023-04-03T15:52:35;13.52;;;3.67;;
26582;SDS011;14230;45.382;10.998;2023-04-03T15:55:02;6.97;;;3.20;;
26582;SDS011;14230;45.382;10.998;2023-04-03T15:57:30;8.57;;;3.30;;
26582;SDS011;14230;45.382;10.998;2023-04-03T16:02:32;7.30;;;2.67;;
26582;SDS011;14230;45.382;10.998;2023-04-03T16:05:00;5.85;;;2.70;;
26582;SDS011;14230;45.382;10.998;2023-04-03T16:07:28;6.07;;;3.03;;
26582;SDS011;14230;45.382;10.998;2023-04-03T16:09:55;9.30;;;3.80;;
26582;SDS011;14230;45.382;10.998;2023-04-03T16:12:23;6.80;;;2.78;;
26582;SDS011;14230;45.382;10.998;2023-04-03T16:14:51;5.63;;;3.03;;
26582;SDS011;14230;45.382;10.998;2023-04-03T16:17:18;7.43;;;2.72;;
26582;SDS011;14230;45.382;10.998;2023-04-03T16:19:46;10.23;;;3.30;;
26582;SDS011;14230;45.382;10.998;2023-04-03T16:22:13;13.05;;;3.10;;
26582;SDS011;14230;45.382;10.998;2023-04-03T16:24:41;8.77;;;3.00;;
26582;SDS011;14230;45.382;10.998;2023-04-03T16:27:08;11.15;;;3.15;;
26582;SDS011;14230;45.382;10.998;2023-04-03T16:29:36;7.18;;;2.72;;
26582;SDS011;14230;45.382;10.998;2023-04-03T16:32:03;11.40;;;3.20;;
26582;SDS011;14230;45.382;10.998;2023-04-03T16:34:31;9.82;;;3.15;;